AirNav   Bose ProFlight Series 2 Headset
 
 639 users online  

46PA UPMC St Margaret Heliport
Pittsburgh, Pennsylvania, USA

GOING TO PITTSBURGH?


FAA INFORMATION EFFECTIVE 02 JANUARY 2020

Location

FAA Identifier: 46PA
Lat/Long: 40-29-19.0300N 079-53-43.3800W
40-29.317167N 079-53.723000W
40.4886194,-79.8953833
(estimated)
Elevation: 761 ft. / 232 m (estimated)
Variation: 08W (1990)
From city: 1 mile NE of PITTSBURGH, PA
Time zone: UTC -5 (UTC -4 during Daylight Saving Time)
Zip code: 15215

Heliport Operations

Heliport use: Private use, MEDICAL USE.
Activation date: 12/1991
Control tower: no
ARTCC: CLEVELAND CENTER
FSS: ALTOONA FLIGHT SERVICE STATION
Attendance: CONTINUOUS
Wind indicator: lighted
Segmented circle: no
Lights: SS-SR

Heliport Communications

WX AWOS-A at 42PN (5 nm W): PHONE 412-442-2213
WX ASOS at AGC (8 nm S): 120.55 (412-466-8968)
WX ASOS at PIT (15 nm W): PHONE 412-472-0145
WX AWOS-3 at FWQ (17 nm S): 118.475 (724-379-5815)
WX AWOS-3PT at BTP (17 nm N): 121.450 (724-586-6434)

Nearby radio navigation aids

VOR radial/distance  VOR name  Freq  Var
AGCr037/14.2ALLEGHENY VOR/DME110.0009W
EWCr153/24.8ELLWOOD CITY VOR/DME115.8008W
HLGr073/33.7WHEELING VOR/DME112.2007W
IHDr327/39.5INDIAN HEAD VORTAC108.2006W

 
NDB name  Hdg/Dist  Freq  Var  ID
CASTLE153/39.827209WUCP ..- -.-. .--.

Heliport Services

Runway Information

Helipad H1

Dimensions: 65 x 65 ft. / 20 x 20 m
Surface: concrete, in good condition
Runway edge lights: PERI
Latitude: 40-29.317167N
Longitude: 079-53.723000W
Elevation: 761.0 ft.
Traffic pattern: leftleft

Heliport Ownership and Management from official FAA records

Ownership: Privately-owned
Owner: UPMC ST MARGARET
815 FREEPORT RD
PITTSBURGH, PA 15215
Phone (412) 784-4000
Manager: DAVID PATTON
UPMC ST MARGARET, 815 FREEPORT RD
PITTSBURGH, PA 15215
Phone (412) 784-5216

Additional Remarks

020 DEG APCH/200 DEG DEPARTURE ROUTE; 110 DEG APCH/290 DEG DEPARTURE ROUTE (BENT APCH).
FOR CD CTC PITTSBURGH APCH AT 412-472-5591

Instrument Procedures

There are no published instrument procedures at 46PA.

Some nearby airports with instrument procedures:

KAGC - Allegheny County Airport (8 nm S)
KPIT - Pittsburgh International Airport (15 nm W)
G05 - Finleyville Airpark (16 nm S)
KFWQ - Rostraver Airport (17 nm S)
KBTP - Pittsburgh/Butler Regional Airport (17 nm N)
 
Loc | Ops | Rwys | IFR | FBO | Links
Com | Nav | Svcs | Stats | Notes
Area around 46PA (UPMC St Margaret Heliport)
 
Road maps at: MapQuest Bing Google
 
Aerial photo
No photo
 
Sectional chart

 
Airport distance calculator
Flying to UPMC St Margaret Heliport? Find the distance to fly.

From to 46PA

Sunrise and sunset
Times for 19-Jan-2020
 Local
(UTC-5)
 Zulu
(UTC)
Morning civil twilight07:1012:10
Sunrise07:4012:40
Sunset17:2122:21
Evening civil twilight17:5022:50

Current date and time
Zulu (UTC)  19-Jan-2020 10:37:39
Local (UTC-5)  19-Jan-2020 05:37:39
 
METAR
KAGC 
8nm S 
190953Z 27012G26KT 10SM BKN026 OVC032 M02/M06 A2984 RMK AO2 PK WND 27030/0911 SLP117 T10171061
KBTP 
17nm N 
190956Z AUTO 26011G17KT 9SM -SN OVC024 M03/M07 A2983 RMK AO2 PK WND 26031/0902 SLP119 P0000 T10281067 FZRANO
KPIT 
17nm W 
190951Z 28017G23KT 9SM -SN OVC018 M02/M07 A2984 RMK AO2 SLP122 P0000 T10221067
KP53 
17nm S 
190956Z AUTO 02021G26KT M06/M08 A2991 RMK AO1 PK WND 02030/0928 SLP139 P0001 T10561083
TAF
KAGC 
8nm S 
191002Z 1910/2006 28013G26KT P6SM -SHSN OVC022 FM191300 27012G22KT P6SM OVC025 FM200200 27010G20KT 4SM -SHSN OVC015 FM200500 28008G16KT P6SM VCSH OVC020
KPIT 
17nm W 
190856Z 1909/2012 28014G27KT P6SM -SHSN OVC018 FM191300 27012G22KT P6SM OVC022 FM200200 27010G20KT 4SM -SHSN OVC015 FM200700 28008G16KT P6SM VCSH OVC020 FM201100 29006KT P6SM BKN025
NOTAMs
Click for the latest NOTAMs
NOTAMs are issued by the DoD/FAA and will open in a separate window not controlled by AirNav.

 

 
 

Would you like to see your business listed on this page?

 If your business provides an interesting product or service to pilots, flight crews, aircraft, or users of the UPMC St Margaret Heliport, you should consider listing it here.  To start the listing process, click on the button below
 
Add a business
 

Other Pages about UPMC St Margaret Heliport

Update a link
 
Copyright © AirNav, LLC. All rights reserved. Privacy Policy  Contact